createdAt,value
2022-11-07T20:48:06.282Z,160.30
2022-11-07T20:50:12.898Z,170.30
2022-11-07T20:52:19.215Z,170.46
2022-11-07T20:54:29.609Z,178.68
2022-11-07T20:56:35.741Z,187.43
2022-11-07T20:58:45.077Z,182.99
2022-11-07T21:00:55.239Z,176.23
2022-11-07T21:03:05.529Z,175.40
2022-11-07T21:05:20.288Z,171.69
2022-11-07T21:07:28.738Z,175.35
2022-11-07T21:09:41.622Z,170.82
2022-11-07T21:11:50.755Z,177.55
2022-11-07T21:13:59.777Z,175.72
2022-11-07T21:16:11.772Z,178.61
2022-11-07T21:18:18.922Z,175.75
2022-11-07T21:20:26.954Z,180.12
2022-11-07T21:22:37.403Z,180.08
2022-11-07T21:24:47.145Z,178.72
2022-11-07T21:26:56.749Z,195.93
2022-11-07T21:29:06.736Z,202.49
2022-11-07T21:31:16.495Z,200.00
2022-11-07T21:33:27.369Z,200.86
2022-11-07T21:35:44.832Z,193.25
2022-11-07T21:37:53.548Z,193.27
2022-11-07T21:40:10.208Z,208.41
2022-11-07T21:42:26.091Z,223.40
2022-11-07T21:44:37.020Z,236.21
2022-11-07T21:46:45.499Z,285.91
2022-11-07T21:48:52.761Z,310.53
2022-11-07T21:51:10.846Z,318.93
2022-11-07T21:53:18.515Z,316.49
2022-11-07T21:55:27.976Z,297.53
2022-11-07T21:57:34.447Z,294.87
2022-11-07T21:59:42.856Z,265.09
2022-11-07T22:01:50.262Z,258.43
2022-11-07T22:04:06.858Z,245.40
2022-11-07T22:06:19.819Z,220.54
2022-11-07T22:08:26.741Z,208.41
2022-11-07T22:10:36.452Z,191.01
2022-11-07T22:12:43.807Z,175.01
2022-11-07T22:14:51.106Z,165.74
2022-11-07T22:16:59.825Z,160.08
2022-11-07T22:19:15.249Z,161.44
2022-11-07T22:21:24.793Z,174.36
2022-11-07T22:23:35.407Z,181.38
2022-11-07T22:25:45.505Z,192.58
2022-11-07T22:27:52.899Z,188.65
2022-11-07T22:29:59.571Z,175.83
2022-11-07T22:32:07.362Z,170.22
2022-11-07T22:34:13.958Z,158.28
2022-11-07T22:36:25.824Z,153.53
2022-11-07T22:38:36.692Z,172.83
2022-11-07T22:40:50.719Z,166.27
2022-11-07T22:42:57.355Z,151.11
2022-11-07T22:45:05.164Z,143.09
2022-11-07T22:47:11.723Z,139.45
2022-11-07T22:49:18.298Z,129.72
2022-11-07T22:51:28.809Z,130.57
2022-11-07T22:53:36.279Z,140.87
2022-11-07T22:55:43.937Z,136.04
2022-11-07T22:57:54.951Z,130.57
2022-11-07T23:00:19.734Z,133.97
2022-11-07T23:02:27.502Z,144.56
2022-11-07T23:04:35.093Z,136.17
2022-11-07T23:06:46.073Z,143.41
2022-11-07T23:08:54.729Z,149.05
2022-11-07T23:13:40.176Z,190.96
2022-11-07T23:15:46.797Z,187.09
2022-11-07T23:17:54.390Z,177.87
2022-11-07T23:20:01.984Z,177.97
2022-11-07T23:22:10.288Z,174.52
2022-11-07T23:24:21.008Z,177.45
2022-11-07T23:26:34.259Z,181.67
2022-11-07T23:28:45.354Z,202.67
2022-11-07T23:30:55.406Z,195.81
2022-11-07T23:33:02.018Z,190.84
2022-11-07T23:35:10.124Z,175.46
2022-11-07T23:37:18.900Z,175.50
2022-11-07T23:39:26.957Z,176.72
2022-11-07T23:41:33.469Z,172.28
2022-11-07T23:43:48.532Z,171.02
2022-11-07T23:46:11.860Z,171.16
2022-11-07T23:48:31.193Z,172.80
2022-11-07T23:50:50.666Z,166.83
2022-11-07T23:52:57.552Z,170.73
2022-11-07T23:55:16.217Z,172.18
2022-11-07T23:57:23.806Z,174.33
2022-11-07T23:59:45.170Z,177.70
